createdAt,value
2022-12-25T00:04:09.302Z,11.57
2022-12-25T00:19:11.289Z,6.45
2022-12-25T00:34:13.398Z,6.70
2022-12-25T00:49:15.341Z,6.82
2022-12-25T01:04:17.382Z,6.43
2022-12-25T01:19:19.327Z,6.28
2022-12-25T01:34:21.470Z,5.35
2022-12-25T01:49:25.854Z,5.75
2022-12-25T02:04:40.126Z,7.43
2022-12-25T02:20:15.823Z,6.68
2022-12-25T02:35:31.376Z,7.22
2022-12-25T02:50:52.463Z,5.93
2022-12-25T03:06:18.659Z,6.13
2022-12-25T03:21:39.423Z,6.15
2022-12-25T03:37:07.411Z,6.68
2022-12-25T03:52:32.631Z,6.27
2022-12-25T04:07:53.370Z,6.50
2022-12-25T04:23:13.986Z,7.35
2022-12-25T04:38:16.175Z,6.35
2022-12-25T04:53:18.954Z,7.18
2022-12-25T05:08:20.881Z,7.28
2022-12-25T05:23:23.367Z,6.20
2022-12-25T05:38:25.400Z,7.82
2022-12-25T05:53:27.333Z,6.53
2022-12-25T06:08:29.275Z,6.85
2022-12-25T06:23:31.192Z,8.70
2022-12-25T06:38:33.174Z,7.07
2022-12-25T06:53:39.794Z,10.45
2022-12-25T07:08:42.657Z,10.13
2022-12-25T07:23:46.244Z,8.50
2022-12-25T07:38:51.708Z,8.70
2022-12-25T07:53:54.581Z,8.95
2022-12-25T08:08:58.419Z,10.35
2022-12-25T08:24:00.374Z,11.38
2022-12-25T08:39:03.491Z,10.57
2022-12-25T08:54:05.673Z,10.55
2022-12-25T09:09:07.677Z,9.65
2022-12-25T09:24:09.641Z,10.02
2022-12-25T09:39:11.690Z,13.48
2022-12-25T09:54:21.240Z,12.05
2022-12-25T10:09:44.787Z,10.02
2022-12-25T10:24:53.450Z,9.32
2022-12-25T10:39:55.420Z,8.97
2022-12-25T10:54:57.620Z,9.65
2022-12-25T11:10:05.814Z,7.05
2022-12-25T11:25:21.045Z,6.90
2022-12-25T11:40:27.845Z,7.45
2022-12-25T11:55:43.406Z,8.50
2022-12-25T12:10:57.274Z,8.00
2022-12-25T12:26:00.267Z,8.65
2022-12-25T12:41:07.921Z,8.25
2022-12-25T12:56:19.195Z,8.43
2022-12-25T13:11:30.138Z,7.50
2022-12-25T13:26:32.183Z,7.93
2022-12-25T13:42:05.590Z,9.02
2022-12-25T13:57:15.585Z,9.90
2022-12-25T14:12:19.526Z,10.95
2022-12-25T14:27:25.224Z,12.63
2022-12-25T14:42:32.431Z,10.93
2022-12-25T14:57:40.573Z,11.93
2022-12-25T15:12:42.503Z,15.63
2022-12-25T15:27:44.474Z,15.60
2022-12-25T15:42:49.093Z,15.60
2022-12-25T15:57:54.592Z,17.45
2022-12-25T16:12:56.530Z,20.75
2022-12-25T16:27:58.582Z,20.33
2022-12-25T16:43:00.631Z,19.77
2022-12-25T16:58:02.740Z,20.90
2022-12-25T17:13:04.828Z,22.35
2022-12-25T17:28:06.784Z,21.48
2022-12-25T17:43:08.727Z,21.13
2022-12-25T17:58:11.023Z,25.08
2022-12-25T18:13:13.000Z,24.25
2022-12-25T18:28:16.200Z,24.67
2022-12-25T18:43:18.239Z,23.52
2022-12-25T18:58:20.165Z,25.33
2022-12-25T19:13:22.422Z,25.30
2022-12-25T19:28:25.284Z,24.00
2022-12-25T19:43:36.232Z,26.02
2022-12-25T19:58:38.349Z,25.80
2022-12-25T20:13:40.376Z,24.95
2022-12-25T20:28:42.652Z,21.60
2022-12-25T20:43:45.716Z,18.75
2022-12-25T20:58:48.063Z,19.80
2022-12-25T21:13:50.239Z,17.77
2022-12-25T21:28:58.056Z,16.15
2022-12-25T21:44:00.986Z,15.17
2022-12-25T21:59:06.153Z,14.45
2022-12-25T22:14:52.716Z,15.82
2022-12-25T22:29:55.902Z,15.90
2022-12-25T22:44:58.573Z,15.63
2022-12-25T23:00:00.590Z,17.55
2022-12-25T23:15:02.586Z,17.35
2022-12-25T23:30:09.962Z,16.58
2022-12-25T23:45:13.904Z,15.35
